createdAt,value
2023-04-15T00:01:37.142Z,100.00
2023-04-15T00:04:04.714Z,100.00
2023-04-15T00:06:31.383Z,100.00
2023-04-15T00:08:58.087Z,100.00
2023-04-15T00:11:24.661Z,100.00
2023-04-15T00:13:51.429Z,100.00
2023-04-15T00:16:17.955Z,100.00
2023-04-15T00:18:44.442Z,100.00
2023-04-15T00:21:10.904Z,100.00
2023-04-15T00:23:37.277Z,100.00
2023-04-15T00:26:06.151Z,100.00
2023-04-15T00:28:35.385Z,100.00
2023-04-15T00:31:02.366Z,100.00
2023-04-15T00:33:28.874Z,100.00
2023-04-15T00:35:55.330Z,100.00
2023-04-15T00:38:21.885Z,100.00
2023-04-15T00:40:48.334Z,100.00
2023-04-15T00:43:17.651Z,100.00
2023-04-15T00:45:44.081Z,100.00
2023-04-15T00:48:13.630Z,100.00
2023-04-15T00:50:40.073Z,100.00
2023-04-15T00:53:07.008Z,100.00
2023-04-15T00:55:33.801Z,100.00
2023-04-15T00:58:00.272Z,100.00
2023-04-15T01:00:27.238Z,100.00
2023-04-15T01:02:56.072Z,100.00
2023-04-15T01:05:27.724Z,100.00
2023-04-15T01:07:57.343Z,100.00
2023-04-15T01:10:23.864Z,100.00
2023-04-15T01:12:50.347Z,100.00
2023-04-15T01:15:16.956Z,100.00
2023-04-15T01:17:43.528Z,100.00
2023-04-15T01:20:11.597Z,100.00
2023-04-15T01:22:39.311Z,100.00
2023-04-15T01:25:14.132Z,100.00
2023-04-15T01:27:42.266Z,100.00
2023-04-15T01:30:09.523Z,100.00
2023-04-15T01:32:36.867Z,100.00
2023-04-15T01:35:05.950Z,100.00
2023-04-15T01:37:35.869Z,100.00
2023-04-15T01:40:03.405Z,100.00
2023-04-15T01:42:32.616Z,100.00
2023-04-15T01:44:59.101Z,100.00
2023-04-15T01:47:25.867Z,100.00
2023-04-15T01:49:52.245Z,100.00
2023-04-15T01:52:18.734Z,100.00
2023-04-15T01:54:45.221Z,100.00
2023-04-15T01:57:11.575Z,100.00
2023-04-15T01:59:38.258Z,100.00
2023-04-15T02:02:05.458Z,100.00
2023-04-15T02:04:32.624Z,100.00
2023-04-15T02:06:59.129Z,100.00
2023-04-15T02:09:25.701Z,100.00
2023-04-15T02:11:53.889Z,100.00
2023-04-15T02:14:20.304Z,100.00
2023-04-15T02:16:46.824Z,100.00
2023-04-15T02:19:13.928Z,100.00
2023-04-15T02:21:40.315Z,100.00
2023-04-15T02:24:07.091Z,100.00
2023-04-15T02:26:33.614Z,100.00
2023-04-15T02:29:00.866Z,100.00
2023-04-15T02:31:27.680Z,100.00
2023-04-15T02:33:54.218Z,100.00
2023-04-15T02:36:23.900Z,100.00
2023-04-15T02:38:50.715Z,100.00
2023-04-15T02:41:17.553Z,100.00
2023-04-15T02:43:44.016Z,100.00
2023-04-15T02:46:14.637Z,100.00
2023-04-15T02:48:41.700Z,100.00
2023-04-15T02:51:12.606Z,100.00
2023-04-15T02:53:39.129Z,100.00
2023-04-15T02:56:06.617Z,100.00
2023-04-15T02:58:34.743Z,100.00
2023-04-15T03:01:01.685Z,100.00
2023-04-15T03:03:28.737Z,100.00
2023-04-15T03:05:55.202Z,100.00
2023-04-15T03:08:24.228Z,100.00
2023-04-15T03:10:52.570Z,100.00
2023-04-15T03:13:19.470Z,100.00
2023-04-15T03:15:51.385Z,100.00
2023-04-15T03:18:17.909Z,100.00
2023-04-15T03:20:44.372Z,100.00
2023-04-15T03:23:11.121Z,100.00
2023-04-15T03:25:37.676Z,100.00
2023-04-15T03:28:04.210Z,100.00
2023-04-15T03:30:30.796Z,100.00
2023-04-15T03:32:57.285Z,100.00
2023-04-15T03:35:25.997Z,100.00
2023-04-15T03:37:52.572Z,100.00
2023-04-15T03:40:23.929Z,100.00
2023-04-15T03:42:52.762Z,100.00
2023-04-15T03:45:21.381Z,100.00
2023-04-15T03:47:49.764Z,100.00
2023-04-15T03:50:16.380Z,100.00
2023-04-15T03:52:42.807Z,100.00
2023-04-15T03:55:09.815Z,100.00
2023-04-15T03:57:38.962Z,100.00
2023-04-15T04:00:06.289Z,100.00
2023-04-15T04:02:32.879Z,100.00
2023-04-15T04:04:59.395Z,100.00
2023-04-15T04:07:25.909Z,100.00
2023-04-15T04:09:52.424Z,100.00
2023-04-15T04:12:18.833Z,100.00
2023-04-15T04:14:45.689Z,100.00
2023-04-15T04:17:15.156Z,100.00
2023-04-15T04:19:43.737Z,100.00
2023-04-15T04:22:10.537Z,100.00
2023-04-15T04:24:37.023Z,100.00
2023-04-15T04:27:03.634Z,100.00
2023-04-15T04:29:30.100Z,100.00
2023-04-15T04:32:01.510Z,100.00
2023-04-15T04:34:28.028Z,100.00
2023-04-15T04:36:54.471Z,100.00
2023-04-15T04:39:20.831Z,100.00
2023-04-15T04:41:47.290Z,100.00
2023-04-15T04:44:13.677Z,100.00
2023-04-15T04:46:40.069Z,100.00
2023-04-15T04:49:06.935Z,100.00
2023-04-15T04:51:33.451Z,100.00
2023-04-15T04:54:03.663Z,100.00
2023-04-15T04:56:30.357Z,100.00
2023-04-15T04:58:57.202Z,100.00
2023-04-15T05:01:23.719Z,100.00
2023-04-15T05:03:50.431Z,100.00
2023-04-15T05:06:16.865Z,100.00
2023-04-15T05:08:43.226Z,100.00
2023-04-15T05:11:09.680Z,100.00
2023-04-15T05:13:38.636Z,100.00
2023-04-15T05:16:06.042Z,100.00
2023-04-15T05:18:32.524Z,100.00
2023-04-15T05:21:02.608Z,100.00
2023-04-15T05:23:29.234Z,100.00
2023-04-15T05:25:55.739Z,100.00
2023-04-15T05:28:22.152Z,100.00
2023-04-15T05:30:48.814Z,100.00
2023-04-15T05:33:15.804Z,100.00
2023-04-15T05:35:42.200Z,100.00
2023-04-15T05:38:10.957Z,100.00
2023-04-15T05:40:37.570Z,100.00
2023-04-15T05:43:03.975Z,100.00
2023-04-15T05:45:30.442Z,100.00
2023-04-15T05:47:56.911Z,100.00
2023-04-15T05:50:23.437Z,100.00
2023-04-15T05:52:49.926Z,100.00
2023-04-15T05:55:16.517Z,100.00
2023-04-15T05:57:42.913Z,100.00
2023-04-15T06:00:10.132Z,100.00
2023-04-15T06:02:37.028Z,100.00
2023-04-15T06:05:04.055Z,100.00
2023-04-15T06:07:30.882Z,100.00
2023-04-15T06:09:57.329Z,100.00
2023-04-15T06:12:23.697Z,100.00
2023-04-15T06:14:50.120Z,100.00
2023-04-15T06:17:18.400Z,100.00
2023-04-15T06:19:47.004Z,100.00
2023-04-15T06:22:13.541Z,100.00
2023-04-15T06:24:40.109Z,100.00
2023-04-15T06:27:07.117Z,100.00
2023-04-15T06:29:33.662Z,100.00
2023-04-15T06:32:00.575Z,100.00
2023-04-15T06:34:27.461Z,100.00
2023-04-15T06:36:54.795Z,100.00
2023-04-15T06:39:21.377Z,100.00
2023-04-15T06:41:48.184Z,100.00
2023-04-15T06:44:14.709Z,100.00
2023-04-15T06:46:41.382Z,100.00
2023-04-15T06:49:08.170Z,100.00
2023-04-15T06:51:36.073Z,100.00
2023-04-15T06:54:05.839Z,100.00
2023-04-15T06:56:33.307Z,100.00
2023-04-15T06:58:59.871Z,100.00
2023-04-15T07:01:26.660Z,100.00
2023-04-15T07:03:53.179Z,100.00
2023-04-15T07:06:19.863Z,100.00
2023-04-15T07:08:46.272Z,100.00
2023-04-15T07:11:15.216Z,100.00
2023-04-15T07:13:43.940Z,100.00
2023-04-15T07:16:10.370Z,100.00
2023-04-15T07:18:39.084Z,100.00
2023-04-15T07:21:05.726Z,100.00
2023-04-15T07:23:32.176Z,100.00
2023-04-15T07:26:01.546Z,100.00
2023-04-15T07:28:30.671Z,100.00
2023-04-15T07:30:59.475Z,100.00
2023-04-15T07:33:26.268Z,100.00
2023-04-15T07:35:52.627Z,100.00
2023-04-15T07:38:19.075Z,100.00
2023-04-15T07:40:46.790Z,100.00
2023-04-15T07:43:13.716Z,100.00
2023-04-15T07:45:40.271Z,100.00
2023-04-15T07:48:06.956Z,100.00
2023-04-15T07:50:33.481Z,100.00
2023-04-15T07:53:02.248Z,100.00
2023-04-15T07:55:30.552Z,100.00
2023-04-15T07:57:57.323Z,100.00
2023-04-15T08:00:28.746Z,100.00
2023-04-15T08:02:57.552Z,100.00
2023-04-15T08:05:24.040Z,100.00
2023-04-15T08:07:50.539Z,100.00
2023-04-15T08:10:17.289Z,100.00
2023-04-15T08:12:43.755Z,100.00
2023-04-15T08:15:10.558Z,100.00
2023-04-15T08:17:37.186Z,100.00
2023-04-15T08:20:04.655Z,100.00
2023-04-15T08:22:34.451Z,100.00
2023-04-15T08:25:00.933Z,100.00
2023-04-15T08:27:29.657Z,100.00
2023-04-15T08:30:03.398Z,100.00
2023-04-15T08:32:31.511Z,100.00
2023-04-15T08:35:00.669Z,100.00
2023-04-15T08:37:27.151Z,100.00
2023-04-15T08:39:58.524Z,100.00
2023-04-15T08:42:31.985Z,100.00
2023-04-15T08:45:00.143Z,100.00
2023-04-15T08:47:30.672Z,100.00
2023-04-15T08:49:58.119Z,100.00
2023-04-15T08:52:26.456Z,100.00
2023-04-15T08:54:56.727Z,100.00
2023-04-15T08:57:27.470Z,100.00
2023-04-15T08:59:57.037Z,100.00
2023-04-15T09:02:27.310Z,100.00
2023-04-15T09:04:54.366Z,100.00
2023-04-15T09:07:23.908Z,100.00
2023-04-15T09:09:51.406Z,100.00
2023-04-15T09:12:17.895Z,100.00
2023-04-15T09:14:49.528Z,100.00
2023-04-15T09:17:19.730Z,100.00
2023-04-15T09:19:46.134Z,91.09
2023-04-15T09:22:13.335Z,90.93
2023-04-15T09:24:40.948Z,88.35
2023-04-15T09:27:07.770Z,81.46
2023-04-15T09:29:34.425Z,86.72
2023-04-15T09:32:11.798Z,91.93
2023-04-15T09:34:38.427Z,89.04
2023-04-15T09:37:04.820Z,85.36
2023-04-15T09:39:49.918Z,91.15
2023-04-15T09:42:17.678Z,89.50
2023-04-15T09:44:44.420Z,98.62
2023-04-15T09:47:27.684Z,94.25
2023-04-15T09:49:58.587Z,91.28
2023-04-15T09:52:25.189Z,75.01
2023-04-15T09:54:56.521Z,84.13
2023-04-15T09:57:23.839Z,86.08
2023-04-15T09:59:52.885Z,79.38
2023-04-15T10:02:23.170Z,75.63
2023-04-15T10:04:53.703Z,78.18
2023-04-15T10:07:23.806Z,83.77
2023-04-15T10:09:50.373Z,82.16
2023-04-15T10:12:18.137Z,78.52
2023-04-15T10:14:49.354Z,77.18
2023-04-15T10:17:18.685Z,74.78
2023-04-15T10:19:46.659Z,76.38
2023-04-15T10:22:14.464Z,69.96
2023-04-15T10:24:45.368Z,76.91
2023-04-15T10:27:12.183Z,76.60
2023-04-15T10:29:39.015Z,80.71
2023-04-15T10:32:05.637Z,82.37
2023-04-15T10:34:32.594Z,77.94
2023-04-15T10:37:03.712Z,71.05
2023-04-15T10:39:33.195Z,78.55
2023-04-15T10:42:11.593Z,74.77
2023-04-15T10:44:39.330Z,76.36
2023-04-15T10:47:20.408Z,77.93
2023-04-15T10:49:58.130Z,78.17
2023-04-15T10:52:27.707Z,69.98
2023-04-15T10:55:16.307Z,74.30
2023-04-15T10:57:43.251Z,70.46
2023-04-15T11:00:12.087Z,65.04
2023-04-15T11:02:52.399Z,65.05
2023-04-15T11:05:21.395Z,57.48
2023-04-15T11:07:56.936Z,56.12
2023-04-15T11:10:26.255Z,53.28
2023-04-15T11:13:04.060Z,55.08
2023-04-15T11:15:37.999Z,49.78
2023-04-15T11:18:10.395Z,52.38
2023-04-15T11:20:38.166Z,48.09
2023-04-15T11:23:12.984Z,48.58
2023-04-15T11:25:41.748Z,47.92
2023-04-15T11:28:11.946Z,44.45
2023-04-15T11:30:39.899Z,44.96
2023-04-15T11:33:12.201Z,43.58
2023-04-15T11:35:41.899Z,45.65
2023-04-15T11:38:10.927Z,46.16
2023-04-15T11:40:40.987Z,46.04
2023-04-15T11:43:22.169Z,47.48
2023-04-15T11:45:55.871Z,48.17
2023-04-15T11:48:24.980Z,50.52
2023-04-15T11:51:05.288Z,50.41
2023-04-15T11:53:41.565Z,50.38
2023-04-15T11:56:10.126Z,52.14
2023-04-15T11:58:40.613Z,49.81
2023-04-15T12:01:07.466Z,48.60
2023-04-15T12:03:43.331Z,48.23
2023-04-15T12:06:23.509Z,49.41
2023-04-15T12:08:55.987Z,50.12
2023-04-15T12:11:31.342Z,52.30
2023-04-15T12:14:24.415Z,49.58
2023-04-15T12:16:58.160Z,51.28
2023-04-15T12:19:35.629Z,51.00
2023-04-15T12:22:11.375Z,49.52
2023-04-15T12:24:39.545Z,51.14
2023-04-15T12:27:08.767Z,51.50
2023-04-15T12:29:38.620Z,52.29
2023-04-15T12:32:16.576Z,54.67
2023-04-15T12:34:54.452Z,55.69
2023-04-15T12:37:21.160Z,56.83
2023-04-15T12:39:49.176Z,56.81
2023-04-15T12:42:17.322Z,55.27
2023-04-15T12:44:44.127Z,57.70
2023-04-15T12:47:11.740Z,57.22
2023-04-15T12:49:39.433Z,60.05
2023-04-15T12:52:06.169Z,56.12
2023-04-15T12:54:32.910Z,63.25
2023-04-15T12:56:59.940Z,63.21
2023-04-15T12:59:26.441Z,73.46
2023-04-15T13:01:53.965Z,67.07
2023-04-15T13:04:21.877Z,65.36
2023-04-15T13:06:48.735Z,58.93
2023-04-15T13:09:15.766Z,55.49
2023-04-15T13:11:42.359Z,58.63
2023-04-15T13:14:11.460Z,52.39
2023-04-15T13:16:40.502Z,49.53
2023-04-15T13:19:09.371Z,46.44
2023-04-15T13:21:36.366Z,45.39
2023-04-15T13:24:04.956Z,44.42
2023-04-15T13:26:32.087Z,42.88
2023-04-15T13:28:58.701Z,42.62
2023-04-15T13:31:25.480Z,43.26
2023-04-15T13:33:51.998Z,43.85
2023-04-15T13:36:18.603Z,42.83
2023-04-15T13:38:45.191Z,43.61
2023-04-15T13:41:11.723Z,43.29
2023-04-15T13:43:38.312Z,43.31
2023-04-15T13:46:05.021Z,44.63
2023-04-15T13:48:31.607Z,45.13
2023-04-15T13:50:58.053Z,45.86
2023-04-15T13:53:33.952Z,45.76
2023-04-15T13:56:10.595Z,47.16
2023-04-15T13:58:38.010Z,49.15
2023-04-15T14:01:06.807Z,50.59
2023-04-15T14:03:35.910Z,51.59
2023-04-15T14:06:02.709Z,58.50
2023-04-15T14:08:32.173Z,67.02
2023-04-15T14:10:58.857Z,70.05
2023-04-15T14:13:25.616Z,77.38
2023-04-15T14:15:52.199Z,82.39
2023-04-15T14:18:18.725Z,81.22
2023-04-15T14:20:45.201Z,83.42
2023-04-15T14:23:11.809Z,88.54
2023-04-15T14:25:39.398Z,92.08
2023-04-15T14:28:08.461Z,90.84
2023-04-15T14:30:35.219Z,94.78
2023-04-15T14:33:02.051Z,98.39
2023-04-15T14:35:30.933Z,100.00
2023-04-15T14:37:57.409Z,100.00
2023-04-15T14:40:26.011Z,100.00
2023-04-15T14:42:52.447Z,100.00
2023-04-15T14:45:19.089Z,100.00
2023-04-15T14:47:45.790Z,100.00
2023-04-15T14:50:12.400Z,100.00
2023-04-15T14:52:39.106Z,100.00
2023-04-15T14:55:07.674Z,100.00
2023-04-15T14:57:34.206Z,100.00
2023-04-15T15:00:00.677Z,100.00
2023-04-15T15:02:38.468Z,100.00
2023-04-15T15:05:09.060Z,100.00
2023-04-15T15:07:38.364Z,100.00
2023-04-15T15:10:06.033Z,100.00
2023-04-15T15:12:32.954Z,100.00
2023-04-15T15:15:00.459Z,100.00
2023-04-15T15:17:30.715Z,100.00
2023-04-15T15:19:57.520Z,100.00
2023-04-15T15:22:24.684Z,100.00
2023-04-15T15:24:51.105Z,100.00
2023-04-15T15:27:17.458Z,100.00
2023-04-15T15:29:43.919Z,100.00
2023-04-15T15:32:10.445Z,100.00
2023-04-15T15:34:37.018Z,100.00
2023-04-15T15:37:03.634Z,100.00
2023-04-15T15:39:30.403Z,100.00
2023-04-15T15:42:01.828Z,100.00
2023-04-15T15:44:28.249Z,100.00
2023-04-15T15:46:54.818Z,100.00
2023-04-15T15:49:21.328Z,100.00
2023-04-15T15:51:50.470Z,100.00
2023-04-15T15:54:17.738Z,100.00
2023-04-15T15:56:44.176Z,100.00
2023-04-15T15:59:10.837Z,100.00
2023-04-15T16:01:37.280Z,100.00
2023-04-15T16:04:04.096Z,100.00
2023-04-15T16:06:34.449Z,100.00
2023-04-15T16:09:02.256Z,100.00
2023-04-15T16:11:29.383Z,100.00
2023-04-15T16:13:56.054Z,100.00
2023-04-15T16:16:22.774Z,100.00
2023-04-15T16:18:49.179Z,100.00
2023-04-15T16:21:19.482Z,100.00
2023-04-15T16:23:46.151Z,100.00
2023-04-15T16:26:14.999Z,100.00
2023-04-15T16:28:41.631Z,100.00
2023-04-15T16:31:08.811Z,100.00
2023-04-15T16:33:37.556Z,100.00
2023-04-15T16:36:04.803Z,100.00
2023-04-15T16:38:31.607Z,100.00
2023-04-15T16:41:00.359Z,100.00
2023-04-15T16:43:27.850Z,100.00
2023-04-15T16:45:54.315Z,100.00
2023-04-15T16:48:21.266Z,100.00
2023-04-15T16:50:48.093Z,100.00
2023-04-15T16:53:18.078Z,100.00
2023-04-15T16:55:44.471Z,100.00
2023-04-15T16:58:11.116Z,100.00
2023-04-15T17:00:37.567Z,100.00
2023-04-15T17:03:05.693Z,100.00
2023-04-15T17:05:35.008Z,100.00
2023-04-15T17:08:01.624Z,100.00
2023-04-15T17:10:28.232Z,100.00
2023-04-15T17:12:58.464Z,100.00
2023-04-15T17:15:25.244Z,100.00
2023-04-15T17:17:51.786Z,100.00
2023-04-15T17:20:18.483Z,100.00
2023-04-15T17:22:45.707Z,100.00
2023-04-15T17:25:13.612Z,100.00
2023-04-15T17:27:42.448Z,100.00
2023-04-15T17:30:09.358Z,100.00
2023-04-15T17:32:35.913Z,100.00
2023-04-15T17:35:10.328Z,100.00
2023-04-15T17:37:37.150Z,100.00
2023-04-15T17:40:08.482Z,100.00
2023-04-15T17:42:35.318Z,100.00
2023-04-15T17:45:01.740Z,100.00
2023-04-15T17:47:28.329Z,100.00
2023-04-15T17:49:54.864Z,100.00
2023-04-15T17:52:21.338Z,100.00
2023-04-15T17:54:47.770Z,100.00
2023-04-15T17:57:14.413Z,100.00
2023-04-15T17:59:44.003Z,100.00
2023-04-15T18:02:12.983Z,100.00
2023-04-15T18:04:40.523Z,100.00
2023-04-15T18:07:07.054Z,100.00
2023-04-15T18:09:33.672Z,100.00
2023-04-15T18:12:02.954Z,100.00
2023-04-15T18:14:34.546Z,100.00
2023-04-15T18:17:05.574Z,100.00
2023-04-15T18:19:32.105Z,100.00
2023-04-15T18:22:01.078Z,100.00
2023-04-15T18:24:32.683Z,100.00
2023-04-15T18:27:01.968Z,100.00
2023-04-15T18:29:28.506Z,100.00
2023-04-15T18:31:55.058Z,100.00
2023-04-15T18:34:21.505Z,100.00
2023-04-15T18:36:48.008Z,100.00
2023-04-15T18:39:14.470Z,100.00
2023-04-15T18:41:40.862Z,100.00
2023-04-15T18:44:07.532Z,100.00
2023-04-15T18:46:34.063Z,100.00
2023-04-15T18:49:04.237Z,100.00
2023-04-15T18:51:30.861Z,100.00
2023-04-15T18:53:57.287Z,100.00
2023-04-15T18:56:23.953Z,100.00
2023-04-15T18:59:22.898Z,100.00
2023-04-15T19:01:37.086Z,100.00
2023-04-15T19:04:06.327Z,100.00
2023-04-15T19:06:32.770Z,100.00
2023-04-15T19:09:02.301Z,100.00
2023-04-15T19:11:28.700Z,100.00
2023-04-15T19:13:55.370Z,100.00
2023-04-15T19:16:21.821Z,100.00
2023-04-15T19:18:48.360Z,100.00
2023-04-15T19:21:15.817Z,100.00
2023-04-15T19:23:45.646Z,100.00
2023-04-15T19:26:12.118Z,100.00
2023-04-15T19:28:38.705Z,100.00
2023-04-15T19:31:05.725Z,100.00
2023-04-15T19:33:34.726Z,100.00
2023-04-15T19:36:03.245Z,100.00
2023-04-15T19:38:30.833Z,100.00
2023-04-15T19:40:58.164Z,100.00
2023-04-15T19:43:25.137Z,100.00
2023-04-15T19:45:56.802Z,100.00
2023-04-15T19:48:25.403Z,100.00
2023-04-15T19:50:51.870Z,100.00
2023-04-15T19:53:18.241Z,100.00
2023-04-15T19:55:44.730Z,100.00
2023-04-15T19:58:16.552Z,100.00
2023-04-15T20:00:48.127Z,100.00
2023-04-15T20:03:17.555Z,100.00
2023-04-15T20:05:46.447Z,100.00
2023-04-15T20:08:12.959Z,100.00
2023-04-15T20:10:39.451Z,100.00
2023-04-15T20:13:06.049Z,100.00
2023-04-15T20:15:32.532Z,100.00
2023-04-15T20:17:58.950Z,100.00
2023-04-15T20:20:26.602Z,100.00
2023-04-15T20:22:53.112Z,100.00
2023-04-15T20:25:19.523Z,100.00
2023-04-15T20:27:45.941Z,100.00
2023-04-15T20:30:12.387Z,100.00
2023-04-15T20:33:18.580Z,100.00
2023-04-15T20:36:25.238Z,100.00
2023-04-15T20:39:30.058Z,100.00
2023-04-15T20:42:39.432Z,100.00
2023-04-15T20:45:43.248Z,100.00
2023-04-15T20:48:47.072Z,100.00
2023-04-15T20:51:51.179Z,100.00
2023-04-15T20:54:55.597Z,100.00
2023-04-15T20:57:59.440Z,100.00
2023-04-15T21:01:03.763Z,100.00
2023-04-15T21:04:08.058Z,100.00
2023-04-15T21:07:12.059Z,100.00
2023-04-15T21:10:16.172Z,100.00
2023-04-15T21:12:42.640Z,100.00
2023-04-15T21:15:09.561Z,100.00
2023-04-15T21:17:38.913Z,100.00
2023-04-15T21:20:08.511Z,100.00
2023-04-15T21:22:34.884Z,100.00
2023-04-15T21:25:01.253Z,100.00
2023-04-15T21:27:27.670Z,100.00
2023-04-15T21:29:54.168Z,100.00
2023-04-15T21:32:20.873Z,100.00
2023-04-15T21:34:47.394Z,100.00
2023-04-15T21:37:13.901Z,100.00
2023-04-15T21:39:40.610Z,100.00
2023-04-15T21:42:10.335Z,100.00
2023-04-15T21:44:36.843Z,100.00
2023-04-15T21:47:03.269Z,100.00
2023-04-15T21:49:30.624Z,100.00
2023-04-15T21:52:00.996Z,100.00
2023-04-15T21:54:28.356Z,100.00
2023-04-15T21:56:54.785Z,100.00
2023-04-15T21:59:21.178Z,100.00
2023-04-15T22:01:47.740Z,100.00
2023-04-15T22:04:19.238Z,100.00
2023-04-15T22:06:46.305Z,100.00
2023-04-15T22:09:14.364Z,100.00
2023-04-15T22:11:41.394Z,100.00
2023-04-15T22:14:08.134Z,100.00
2023-04-15T22:16:34.808Z,100.00
2023-04-15T22:19:02.623Z,100.00
2023-04-15T22:21:29.014Z,100.00
2023-04-15T22:24:32.521Z,100.00
2023-04-15T22:26:44.023Z,100.00
2023-04-15T22:29:10.665Z,100.00
2023-04-15T22:31:37.108Z,100.00
2023-04-15T22:34:03.616Z,100.00
2023-04-15T22:36:31.582Z,100.00
2023-04-15T22:38:58.058Z,100.00
2023-04-15T22:41:24.918Z,100.00
2023-04-15T22:43:51.257Z,100.00
2023-04-15T22:46:17.666Z,100.00
2023-04-15T22:48:44.210Z,100.00
2023-04-15T22:51:10.624Z,100.00
2023-04-15T22:53:37.094Z,100.00
2023-04-15T22:56:03.571Z,100.00
2023-04-15T22:58:31.967Z,100.00
2023-04-15T23:00:59.096Z,100.00
2023-04-15T23:03:25.691Z,100.00
2023-04-15T23:05:54.859Z,100.00
2023-04-15T23:08:21.369Z,100.00
2023-04-15T23:10:48.021Z,100.00
2023-04-15T23:13:14.456Z,100.00
2023-04-15T23:15:40.937Z,100.00
2023-04-15T23:18:07.476Z,100.00
2023-04-15T23:20:34.040Z,100.00
2023-04-15T23:23:00.624Z,100.00
2023-04-15T23:25:27.078Z,100.00
2023-04-15T23:27:53.816Z,100.00
2023-04-15T23:30:22.585Z,100.00
2023-04-15T23:32:49.097Z,100.00
2023-04-15T23:35:18.497Z,100.00
2023-04-15T23:37:44.909Z,100.00
2023-04-15T23:40:11.931Z,100.00
2023-04-15T23:42:38.376Z,100.00
2023-04-15T23:45:05.361Z,100.00
2023-04-15T23:47:32.067Z,100.00
2023-04-15T23:50:00.836Z,100.00
2023-04-15T23:52:29.534Z,100.00
2023-04-15T23:54:56.040Z,100.00
2023-04-15T23:57:22.444Z,100.00
2023-04-15T23:59:48.875Z,100.00
